createdAt,value
2019-01-21T00:00:52.539Z,-3.85
2019-01-21T00:01:52.514Z,-3.86
2019-01-21T00:02:52.472Z,-3.96
2019-01-21T00:03:52.468Z,-3.91
2019-01-21T00:04:52.432Z,-3.86
2019-01-21T00:05:52.398Z,-3.81
2019-01-21T00:06:52.378Z,-3.69
2019-01-21T00:07:52.349Z,-3.41
2019-01-21T00:08:52.343Z,-3.20
2019-01-21T00:09:52.300Z,-2.97
2019-01-21T00:10:52.275Z,-2.84
2019-01-21T00:11:52.249Z,-2.81
2019-01-21T00:12:52.223Z,-2.81
2019-01-21T00:13:52.205Z,-2.77
2019-01-21T00:14:52.188Z,-2.84
2019-01-21T00:15:52.268Z,-2.86
2019-01-21T00:16:52.122Z,-2.82
2019-01-21T00:17:52.099Z,-2.81
2019-01-21T00:18:52.069Z,-2.85
2019-01-21T00:19:52.061Z,-3.00
2019-01-21T00:20:52.026Z,-3.06
2019-01-21T00:21:52.013Z,-3.17
2019-01-21T00:22:51.973Z,-3.23
2019-01-21T00:23:51.939Z,-3.36
2019-01-21T00:24:51.960Z,-3.28
2019-01-21T00:25:51.899Z,-3.39
2019-01-21T00:26:51.886Z,-3.42
2019-01-21T00:27:51.848Z,-3.43
2019-01-21T00:28:51.818Z,-3.46
2019-01-21T00:29:51.786Z,-3.48
2019-01-21T00:30:51.763Z,-3.53
2019-01-21T00:31:51.759Z,-3.52
2019-01-21T00:32:51.734Z,-3.63
2019-01-21T00:33:51.690Z,-3.64
2019-01-21T00:34:51.662Z,-3.75
2019-01-21T00:35:51.641Z,-3.86
2019-01-21T00:36:51.609Z,-3.78
2019-01-21T00:37:51.602Z,-3.88
2019-01-21T00:38:51.563Z,-3.91
2019-01-21T00:39:51.539Z,-3.88
2019-01-21T00:40:51.513Z,-3.91
2019-01-21T00:41:51.487Z,-3.97
2019-01-21T00:42:51.474Z,-4.00
2019-01-21T00:43:51.445Z,-4.04
2019-01-21T00:44:51.427Z,-4.17
2019-01-21T00:45:51.381Z,-4.15
2019-01-21T00:46:51.359Z,-4.18
2019-01-21T00:47:51.331Z,-4.25
2019-01-21T00:48:51.319Z,-4.22
2019-01-21T00:49:51.280Z,-4.15
2019-01-21T00:50:51.275Z,-4.15
2019-01-21T00:51:51.222Z,-4.18
2019-01-21T00:52:51.202Z,-4.22
2019-01-21T00:53:51.180Z,-4.30
2019-01-21T00:54:51.221Z,-4.22
2019-01-21T00:55:51.146Z,-4.14
2019-01-21T00:56:51.100Z,-4.28
2019-01-21T00:57:51.075Z,-4.18
2019-01-21T00:58:51.054Z,-4.22
2019-01-21T00:59:51.019Z,-4.18
2019-01-21T01:00:51.001Z,-4.28
2019-01-21T01:01:51.014Z,-4.14
2019-01-21T01:02:51.723Z,-4.24
2019-01-21T01:03:50.926Z,-4.29
2019-01-21T01:04:50.900Z,-4.20
2019-01-21T01:05:50.875Z,-4.28
2019-01-21T01:06:50.849Z,-4.24
2019-01-21T01:07:50.834Z,-4.24
2019-01-21T01:08:53.679Z,-4.17
2019-01-21T01:09:50.767Z,-4.15
2019-01-21T01:10:50.743Z,-4.24
2019-01-21T01:11:50.721Z,-4.18
2019-01-21T01:12:50.689Z,-4.17
2019-01-21T01:13:50.690Z,-4.07
2019-01-21T01:14:50.641Z,-4.20
2019-01-21T01:15:50.622Z,-4.11
2019-01-21T01:16:50.591Z,-4.12
2019-01-21T01:17:50.571Z,-4.10
2019-01-21T01:18:50.556Z,-4.10
2019-01-21T01:19:50.517Z,-4.11
2019-01-21T01:20:50.490Z,-4.25
2019-01-21T01:21:50.466Z,-4.24
2019-01-21T01:22:50.447Z,-4.22
2019-01-21T01:23:50.417Z,-4.21
2019-01-21T01:24:50.404Z,-4.24
2019-01-21T01:25:50.363Z,-4.24
2019-01-21T01:26:51.191Z,-4.29
2019-01-21T01:27:50.314Z,-4.15
2019-01-21T01:28:50.306Z,-4.12
2019-01-21T01:29:50.270Z,-4.24
2019-01-21T01:30:50.255Z,-4.24
2019-01-21T01:31:50.213Z,-4.21
2019-01-21T01:32:50.182Z,-4.15
2019-01-21T01:33:50.159Z,-4.17
2019-01-21T01:34:50.152Z,-4.04
2019-01-21T01:35:50.110Z,-4.01
2019-01-21T01:36:50.086Z,-3.97
2019-01-21T01:37:50.083Z,-3.96
2019-01-21T01:38:50.028Z,-3.85
2019-01-21T01:39:50.007Z,-3.86
2019-01-21T01:40:49.988Z,-3.86
2019-01-21T01:41:49.969Z,-3.82
2019-01-21T01:42:49.929Z,-3.99
2019-01-21T01:43:49.904Z,-3.97
2019-01-21T01:44:49.921Z,-4.00
2019-01-21T01:45:49.849Z,-4.07
2019-01-21T01:46:49.851Z,-3.99
2019-01-21T01:47:49.819Z,-4.01
2019-01-21T01:48:49.777Z,-4.12
2019-01-21T01:49:49.771Z,-4.07
2019-01-21T01:50:49.724Z,-4.15
2019-01-21T01:51:49.699Z,-4.17
2019-01-21T01:52:49.672Z,-4.24
2019-01-21T01:53:49.656Z,-4.29
2019-01-21T01:54:49.624Z,-4.25
2019-01-21T01:55:49.615Z,-4.21
2019-01-21T01:56:49.573Z,-4.29
2019-01-21T01:57:49.547Z,-4.30
2019-01-21T01:58:50.251Z,-4.36
2019-01-21T01:59:49.497Z,-4.36
2019-01-21T02:00:49.474Z,-4.29
2019-01-21T02:01:49.443Z,-4.32
2019-01-21T02:02:49.428Z,-4.39
2019-01-21T02:03:49.415Z,-4.33
2019-01-21T02:04:49.368Z,-4.30
2019-01-21T02:05:49.371Z,-4.21
2019-01-21T02:06:49.319Z,-4.18
2019-01-21T02:07:49.295Z,-4.30
2019-01-21T02:08:49.270Z,-4.21
2019-01-21T02:09:49.241Z,-4.30
2019-01-21T02:10:49.233Z,-4.22
2019-01-21T02:11:49.191Z,-4.36
2019-01-21T02:12:49.167Z,-4.35
2019-01-21T02:13:49.140Z,-4.36
2019-01-21T02:14:49.110Z,-4.38
2019-01-21T02:15:49.093Z,-4.46
2019-01-21T02:16:49.077Z,-4.47
2019-01-21T02:17:52.124Z,-4.53
2019-01-21T02:18:49.012Z,-4.56
2019-01-21T02:19:48.987Z,-4.50
2019-01-21T02:20:48.963Z,-4.56
2019-01-21T02:21:48.935Z,-4.60
2019-01-21T02:22:48.923Z,-4.63
2019-01-21T02:23:48.884Z,-4.72
2019-01-21T02:24:48.876Z,-4.71
2019-01-21T02:25:48.834Z,-4.72
2019-01-21T02:26:48.809Z,-4.58
2019-01-21T02:27:48.796Z,-4.61
2019-01-21T02:28:48.757Z,-4.60
2019-01-21T02:29:48.725Z,-4.71
2019-01-21T02:30:48.716Z,-4.74
2019-01-21T02:31:48.692Z,-4.71
2019-01-21T02:32:48.653Z,-4.69
2019-01-21T02:33:48.649Z,-4.69
2019-01-21T02:34:48.600Z,-4.65
2019-01-21T02:35:48.572Z,-4.68
2019-01-21T02:36:48.570Z,-4.71
2019-01-21T02:37:48.522Z,-4.74
2019-01-21T02:38:48.498Z,-4.67
2019-01-21T02:39:49.186Z,-4.85
2019-01-21T02:40:48.452Z,-4.85
2019-01-21T02:41:48.438Z,-4.86
2019-01-21T02:42:48.391Z,-4.68
2019-01-21T02:43:48.370Z,-4.71
2019-01-21T02:44:48.343Z,-4.57
2019-01-21T02:45:48.318Z,-4.60
2019-01-21T02:46:48.320Z,-4.67
2019-01-21T02:47:48.269Z,-4.68
2019-01-21T02:48:48.245Z,-4.72
2019-01-21T02:49:48.217Z,-4.69
2019-01-21T02:50:48.190Z,-4.69
2019-01-21T02:51:48.164Z,-4.67
2019-01-21T02:52:48.157Z,-4.69
2019-01-21T02:53:48.113Z,-4.71
2019-01-21T02:54:48.087Z,-4.85
2019-01-21T02:55:48.058Z,-4.75
2019-01-21T02:56:48.035Z,-4.87
2019-01-21T02:57:48.010Z,-4.86
2019-01-21T02:58:48.006Z,-4.78
2019-01-21T02:59:47.962Z,-4.81
2019-01-21T03:00:47.935Z,-4.85
2019-01-21T03:01:47.905Z,-4.93
2019-01-21T03:02:47.883Z,-4.89
2019-01-21T03:03:47.875Z,-4.90
2019-01-21T03:04:47.845Z,-4.86
2019-01-21T03:05:47.817Z,-4.85
2019-01-21T03:06:47.776Z,-4.87
2019-01-21T03:07:47.757Z,-4.87
2019-01-21T03:08:47.747Z,-4.89
2019-01-21T03:09:47.716Z,-4.89
2019-01-21T03:10:47.679Z,-4.86
2019-01-21T03:11:47.650Z,-4.87
2019-01-21T03:12:47.626Z,-4.95
2019-01-21T03:13:47.597Z,-4.92
2019-01-21T03:14:47.587Z,-4.93
2019-01-21T03:15:47.547Z,-4.93
2019-01-21T03:16:47.518Z,-4.97
2019-01-21T03:17:47.500Z,-5.06
2019-01-21T03:18:47.468Z,-4.99
2019-01-21T03:19:47.459Z,-4.97
2019-01-21T03:20:47.422Z,-4.96
2019-01-21T03:21:47.389Z,-4.96
2019-01-21T03:22:47.372Z,-4.92
2019-01-21T03:23:47.342Z,-4.93
2019-01-21T03:24:47.331Z,-4.87
2019-01-21T03:25:48.227Z,-4.96
2019-01-21T03:26:47.267Z,-4.96
2019-01-21T03:27:47.424Z,-4.89
2019-01-21T03:28:47.207Z,-4.86
2019-01-21T03:29:47.182Z,-4.89
2019-01-21T03:30:47.175Z,-4.81
2019-01-21T03:31:47.133Z,-4.74
2019-01-21T03:32:47.110Z,-4.68
2019-01-21T03:33:47.105Z,-4.71
2019-01-21T03:34:47.065Z,-4.72
2019-01-21T03:35:47.048Z,-4.65
2019-01-21T03:36:47.005Z,-4.56
2019-01-21T03:37:46.988Z,-4.50
2019-01-21T03:38:46.951Z,-4.38
2019-01-21T03:39:46.928Z,-4.38
2019-01-21T03:40:46.917Z,-4.36
2019-01-21T03:41:46.899Z,-4.32
2019-01-21T03:42:46.863Z,-4.38
2019-01-21T03:43:46.819Z,-4.36
2019-01-21T03:44:46.801Z,-4.36
2019-01-21T03:45:46.857Z,-4.38
2019-01-21T03:46:46.743Z,-4.46
2019-01-21T03:47:46.715Z,-4.40
2019-01-21T03:48:46.710Z,-4.47
2019-01-21T03:49:46.666Z,-4.50
2019-01-21T03:50:46.649Z,-4.53
2019-01-21T03:51:46.612Z,-4.51
2019-01-21T03:52:46.583Z,-4.57
2019-01-21T03:53:46.561Z,-4.65
2019-01-21T03:54:46.549Z,-4.74
2019-01-21T03:55:46.519Z,-4.86
2019-01-21T03:56:46.487Z,-4.85
2019-01-21T03:57:46.460Z,-4.89
2019-01-21T03:58:46.450Z,-4.83
2019-01-21T03:59:46.409Z,-4.77
2019-01-21T04:00:46.378Z,-4.81
2019-01-21T04:01:46.353Z,-4.74
2019-01-21T04:02:46.327Z,-4.65
2019-01-21T04:03:46.302Z,-4.69
2019-01-21T04:04:46.303Z,-4.69
2019-01-21T04:05:46.280Z,-4.71
2019-01-21T04:06:46.225Z,-4.75
2019-01-21T04:07:46.195Z,-4.69
2019-01-21T04:08:46.181Z,-4.61
2019-01-21T04:09:46.157Z,-4.63
2019-01-21T04:10:46.114Z,-4.74
2019-01-21T04:11:46.107Z,-4.87
2019-01-21T04:12:46.071Z,-4.83
2019-01-21T04:13:46.045Z,-4.92
2019-01-21T04:14:46.012Z,-4.85
2019-01-21T04:15:45.990Z,-4.93
2019-01-21T04:16:45.985Z,-4.87
2019-01-21T04:17:45.937Z,-4.86
2019-01-21T04:18:45.912Z,-4.65
2019-01-21T04:19:45.884Z,-4.60
2019-01-21T04:20:45.854Z,-4.58
2019-01-21T04:21:45.833Z,-4.47
2019-01-21T04:22:45.821Z,-4.54
2019-01-21T04:23:45.797Z,-4.47
2019-01-21T04:24:45.760Z,-4.33
2019-01-21T04:25:45.729Z,-4.38
2019-01-21T04:26:45.703Z,-4.38
2019-01-21T04:27:47.178Z,-4.47
2019-01-21T04:28:45.650Z,-4.43
2019-01-21T04:29:45.637Z,-4.46
2019-01-21T04:30:45.602Z,-4.51
2019-01-21T04:31:45.574Z,-4.50
2019-01-21T04:32:45.547Z,-4.51
2019-01-21T04:33:45.522Z,-4.54
2019-01-21T04:34:45.514Z,-4.61
2019-01-21T04:35:45.472Z,-4.68
2019-01-21T04:36:45.445Z,-4.71
2019-01-21T04:37:45.420Z,-4.74
2019-01-21T04:38:45.391Z,-4.72
2019-01-21T04:39:45.375Z,-4.74
2019-01-21T04:40:45.414Z,-4.78
2019-01-21T04:41:45.310Z,-4.74
2019-01-21T04:42:45.304Z,-4.86
2019-01-21T04:43:45.261Z,-4.83
2019-01-21T04:44:45.239Z,-4.89
2019-01-21T04:45:45.223Z,-4.81
2019-01-21T04:46:45.179Z,-4.87
2019-01-21T04:47:45.171Z,-4.69
2019-01-21T04:48:45.136Z,-4.74
2019-01-21T04:49:45.104Z,-4.69
2019-01-21T04:50:45.074Z,-4.69
2019-01-21T04:51:45.048Z,-4.68
2019-01-21T04:52:45.043Z,-4.51
2019-01-21T04:53:45.025Z,-4.46
2019-01-21T04:54:44.973Z,-4.40
2019-01-21T04:55:44.947Z,-4.32
2019-01-21T04:56:44.931Z,-4.24
2019-01-21T04:57:44.893Z,-4.15
2019-01-21T04:58:44.897Z,-4.25
2019-01-21T04:59:44.844Z,-4.10
2019-01-21T05:00:44.817Z,-4.22
2019-01-21T05:01:44.795Z,-4.25
2019-01-21T05:02:44.777Z,-4.17
2019-01-21T05:03:44.735Z,-4.18
2019-01-21T05:04:44.731Z,-4.29
2019-01-21T05:05:44.690Z,-4.33
2019-01-21T05:06:44.658Z,-4.33
2019-01-21T05:07:44.651Z,-4.38
2019-01-21T05:08:44.611Z,-4.32
2019-01-21T05:09:44.603Z,-4.18
2019-01-21T05:10:44.557Z,-4.12
2019-01-21T05:11:44.534Z,-4.10
2019-01-21T05:12:44.510Z,-4.12
2019-01-21T05:13:44.482Z,-4.14
2019-01-21T05:14:44.480Z,-4.15
2019-01-21T05:15:44.448Z,-4.07
2019-01-21T05:16:44.403Z,-4.21
2019-01-21T05:17:44.376Z,-4.17
2019-01-21T05:18:44.349Z,-4.15
2019-01-21T05:19:44.326Z,-4.24
2019-01-21T05:20:44.317Z,-4.21
2019-01-21T05:21:44.273Z,-4.12
2019-01-21T05:22:44.249Z,-4.21
2019-01-21T05:23:44.224Z,-4.17
2019-01-21T05:24:44.208Z,-4.28
2019-01-21T05:25:44.172Z,-4.21
2019-01-21T05:26:44.157Z,-4.32
2019-01-21T05:27:44.114Z,-4.24
2019-01-21T05:28:44.089Z,-4.28
2019-01-21T05:29:44.062Z,-4.24
2019-01-21T05:30:44.034Z,-4.22
2019-01-21T05:31:44.017Z,-4.15
2019-01-21T05:32:44.008Z,-4.22
2019-01-21T05:33:43.968Z,-4.22
2019-01-21T05:34:43.936Z,-4.18
2019-01-21T05:35:43.911Z,-4.17
2019-01-21T05:36:43.883Z,-4.14
2019-01-21T05:37:43.883Z,-4.00
2019-01-21T05:38:43.841Z,-4.07
2019-01-21T05:39:43.801Z,-4.00
2019-01-21T05:40:43.782Z,-3.97
2019-01-21T05:41:43.756Z,-3.99
2019-01-21T05:42:43.721Z,-3.99
2019-01-21T05:43:43.710Z,-4.03
2019-01-21T05:44:43.673Z,-4.04
2019-01-21T05:45:43.650Z,-4.12
2019-01-21T05:46:43.627Z,-4.06
2019-01-21T05:47:43.593Z,-4.04
2019-01-21T05:48:48.922Z,-4.00
2019-01-21T05:49:43.563Z,-4.06
2019-01-21T05:50:43.517Z,-4.04
2019-01-21T05:51:43.501Z,-4.01
2019-01-21T05:52:43.467Z,-4.03
2019-01-21T05:53:43.471Z,-4.04
2019-01-21T05:54:43.413Z,-4.07
2019-01-21T05:55:43.410Z,-4.14
2019-01-21T05:56:43.364Z,-4.04
2019-01-21T05:57:44.200Z,-4.20
2019-01-21T05:58:44.177Z,-4.25
2019-01-21T05:59:43.305Z,-4.22
2019-01-21T06:00:43.272Z,-4.17
2019-01-21T06:01:43.259Z,-4.15
2019-01-21T06:02:43.203Z,-4.21
2019-01-21T06:03:43.178Z,-4.24
2019-01-21T06:04:43.197Z,-4.25
2019-01-21T06:05:43.127Z,-4.28
2019-01-21T06:06:43.124Z,-4.15
2019-01-21T06:07:43.081Z,-4.21
2019-01-21T06:08:43.060Z,-4.12
2019-01-21T06:09:43.025Z,-4.15
2019-01-21T06:10:43.001Z,-4.20
2019-01-21T06:11:42.973Z,-4.21
2019-01-21T06:12:42.964Z,-4.14
2019-01-21T06:13:42.926Z,-4.17
2019-01-21T06:14:42.890Z,-4.25
2019-01-21T06:15:42.868Z,-4.30
2019-01-21T06:16:42.843Z,-4.28
2019-01-21T06:17:42.830Z,-4.32
2019-01-21T06:18:42.789Z,-4.30
2019-01-21T06:19:42.761Z,-4.15
2019-01-21T06:20:42.749Z,-4.20
2019-01-21T06:21:42.719Z,-4.18
2019-01-21T06:22:42.687Z,-4.21
2019-01-21T06:23:42.738Z,-4.24
2019-01-21T06:24:42.640Z,-4.18
2019-01-21T06:25:42.613Z,-4.18
2019-01-21T06:26:42.584Z,-4.07
2019-01-21T06:27:42.555Z,-4.12
2019-01-21T06:28:42.529Z,-4.14
2019-01-21T06:29:42.542Z,-3.99
2019-01-21T06:30:42.475Z,-4.04
2019-01-21T06:31:42.451Z,-4.00
2019-01-21T06:32:42.423Z,-4.04
2019-01-21T06:33:42.403Z,-4.03
2019-01-21T06:34:42.376Z,-4.03
2019-01-21T06:35:42.367Z,-4.07
2019-01-21T06:36:42.324Z,-3.99
2019-01-21T06:37:42.314Z,-3.97
2019-01-21T06:38:42.291Z,-4.03
2019-01-21T06:39:42.238Z,-4.03
2019-01-21T06:40:42.239Z,-4.01
2019-01-21T06:41:42.198Z,-3.93
2019-01-21T06:42:42.173Z,-3.97
2019-01-21T06:43:42.139Z,-3.90
2019-01-21T06:44:42.108Z,-3.91
2019-01-21T06:45:42.081Z,-4.01
2019-01-21T06:46:42.075Z,-3.91
2019-01-21T06:47:42.053Z,-3.94
2019-01-21T06:48:42.010Z,-4.03
2019-01-21T06:49:41.985Z,-4.01
2019-01-21T06:50:41.955Z,-4.12
2019-01-21T06:51:41.927Z,-4.15
2019-01-21T06:52:42.719Z,-4.10
2019-01-21T06:53:41.891Z,-4.22
2019-01-21T06:54:41.866Z,-4.10
2019-01-21T06:55:41.824Z,-4.10
2019-01-21T06:56:47.430Z,-4.12
2019-01-21T06:57:41.791Z,-4.07
2019-01-21T06:58:41.745Z,-4.14
2019-01-21T06:59:41.716Z,-4.10
2019-01-21T07:00:41.690Z,-4.10
2019-01-21T07:01:41.666Z,-4.14
2019-01-21T07:02:41.640Z,-4.15
2019-01-21T07:03:41.635Z,-4.12
2019-01-21T07:04:41.622Z,-4.14
2019-01-21T07:05:41.563Z,-3.99
2019-01-21T07:06:41.542Z,-4.11
2019-01-21T07:07:41.512Z,-4.01
2019-01-21T07:08:41.480Z,-3.93
2019-01-21T07:09:41.456Z,-4.03
2019-01-21T07:10:41.447Z,-3.86
2019-01-21T07:11:41.420Z,-3.91
2019-01-21T07:12:41.387Z,-3.91
2019-01-21T07:13:41.349Z,-3.85
2019-01-21T07:14:41.325Z,-3.97
2019-01-21T07:15:41.303Z,-3.99
2019-01-21T07:16:41.300Z,-3.97
2019-01-21T07:17:41.246Z,-3.96
2019-01-21T07:18:41.220Z,-3.99
2019-01-21T07:19:41.191Z,-3.90
2019-01-21T07:20:41.169Z,-3.91
2019-01-21T07:21:41.142Z,-3.81
2019-01-21T07:22:41.136Z,-3.76
2019-01-21T07:23:41.086Z,-3.85
2019-01-21T07:24:41.068Z,-3.86
2019-01-21T07:25:41.039Z,-3.83
2019-01-21T07:26:41.012Z,-3.88
2019-01-21T07:27:41.017Z,-3.93
2019-01-21T07:28:40.958Z,-3.97
2019-01-21T07:29:40.934Z,-3.99
2019-01-21T07:30:40.908Z,-4.00
2019-01-21T07:31:40.882Z,-3.99
2019-01-21T07:32:40.854Z,-4.04
2019-01-21T07:33:40.855Z,-4.01
2019-01-21T07:34:40.806Z,-4.07
2019-01-21T07:35:40.780Z,-4.11
2019-01-21T07:36:40.752Z,-4.12
2019-01-21T07:37:40.724Z,-4.10
2019-01-21T07:38:40.700Z,-4.12
2019-01-21T07:39:40.682Z,-4.15
2019-01-21T07:40:40.642Z,-4.18
2019-01-21T07:41:40.617Z,-4.18
2019-01-21T07:42:40.588Z,-4.06
2019-01-21T07:43:40.566Z,-4.10
2019-01-21T07:44:40.553Z,-4.14
2019-01-21T07:45:41.551Z,-4.07
2019-01-21T07:46:40.485Z,-4.06
2019-01-21T07:47:40.465Z,-4.07
2019-01-21T07:48:40.437Z,-4.07
2019-01-21T07:49:40.446Z,-4.11
2019-01-21T07:50:40.391Z,-3.99
2019-01-21T07:51:40.364Z,-4.01
2019-01-21T07:52:40.336Z,-4.03
2019-01-21T07:53:40.307Z,-3.96
2019-01-21T07:54:40.278Z,-3.96
2019-01-21T07:55:40.278Z,-3.88
2019-01-21T07:56:40.224Z,-3.88
2019-01-21T07:57:40.200Z,-3.63
2019-01-21T07:58:40.175Z,-3.64
2019-01-21T07:59:40.161Z,-3.71
2019-01-21T08:00:40.125Z,-3.67
2019-01-21T08:01:40.125Z,-3.72
2019-01-21T08:02:40.072Z,-3.59
2019-01-21T08:03:40.041Z,-3.62
2019-01-21T08:04:40.014Z,-3.63
2019-01-21T08:05:39.995Z,-3.72
2019-01-21T08:06:39.975Z,-3.66
2019-01-21T08:07:39.953Z,-3.66
2019-01-21T08:08:39.922Z,-3.64
2019-01-21T08:09:39.906Z,-3.67
2019-01-21T08:10:39.863Z,-3.64
2019-01-21T08:11:39.841Z,-3.67
2019-01-21T08:12:39.828Z,-3.78
2019-01-21T08:13:39.784Z,-3.71
2019-01-21T08:14:39.756Z,-3.67
2019-01-21T08:15:39.735Z,-3.71
2019-01-21T08:16:39.715Z,-3.66
2019-01-21T08:17:39.700Z,-3.67
2019-01-21T08:18:39.651Z,-3.64
2019-01-21T08:19:39.641Z,-3.66
2019-01-21T08:20:39.604Z,-3.64
2019-01-21T08:21:39.579Z,-3.66
2019-01-21T08:22:39.540Z,-3.67
2019-01-21T08:23:39.536Z,-3.62
2019-01-21T08:24:39.509Z,-3.52
2019-01-21T08:25:39.478Z,-3.59
2019-01-21T08:26:39.462Z,-3.43
2019-01-21T08:27:39.419Z,-3.43
2019-01-21T08:28:39.393Z,-3.45
2019-01-21T08:29:39.360Z,-3.38
2019-01-21T08:30:39.341Z,-3.38
2019-01-21T08:31:39.310Z,-3.30
2019-01-21T08:32:39.329Z,-3.31
2019-01-21T08:33:39.268Z,-3.36
2019-01-21T08:34:39.238Z,-3.24
2019-01-21T08:35:39.211Z,-3.38
2019-01-21T08:36:39.188Z,-3.21
2019-01-21T08:37:39.161Z,-3.33
2019-01-21T08:38:39.150Z,-3.21
2019-01-21T08:39:39.110Z,-3.30
2019-01-21T08:40:39.127Z,-3.31
2019-01-21T08:41:39.059Z,-3.25
2019-01-21T08:42:39.027Z,-3.27
2019-01-21T08:43:39.002Z,-3.21
2019-01-21T08:44:38.988Z,-3.23
2019-01-21T08:45:38.981Z,-3.14
2019-01-21T08:46:38.925Z,-3.17
2019-01-21T08:47:38.899Z,-3.07
2019-01-21T08:48:38.875Z,-3.03
2019-01-21T08:49:38.850Z,-3.14
2019-01-21T08:50:38.824Z,-3.02
2019-01-21T08:51:38.822Z,-3.10
2019-01-21T08:52:38.774Z,-2.96
2019-01-21T08:53:38.762Z,-3.03
2019-01-21T08:54:38.722Z,-3.00
2019-01-21T08:55:38.714Z,-3.03
2019-01-21T08:56:38.670Z,-3.00
2019-01-21T08:57:38.641Z,-2.89
2019-01-21T08:58:38.616Z,-3.02
2019-01-21T08:59:38.617Z,-2.97
2019-01-21T09:00:38.570Z,-3.00
2019-01-21T09:01:38.557Z,-2.84
2019-01-21T09:02:38.515Z,-2.85
2019-01-21T09:03:38.506Z,-2.85
2019-01-21T09:04:38.468Z,-2.73
2019-01-21T09:05:38.437Z,-2.73
2019-01-21T09:06:38.410Z,-2.70
2019-01-21T09:07:38.407Z,-2.61
2019-01-21T09:08:38.367Z,-2.56
2019-01-21T09:09:38.350Z,-2.50
2019-01-21T09:10:38.311Z,-2.49
2019-01-21T09:11:38.295Z,-2.56
2019-01-21T09:12:38.279Z,-2.56
2019-01-21T09:13:38.244Z,-2.50
2019-01-21T09:14:38.206Z,-2.56
2019-01-21T09:15:38.184Z,-2.53
2019-01-21T09:16:38.159Z,-2.50
2019-01-21T09:17:38.129Z,-2.48
2019-01-21T09:18:38.127Z,-2.43
2019-01-21T09:19:38.082Z,-2.39
2019-01-21T09:20:38.054Z,-2.42
2019-01-21T09:21:38.031Z,-2.37
2019-01-21T09:22:38.025Z,-2.42
2019-01-21T09:23:37.978Z,-2.34
2019-01-21T09:24:37.948Z,-2.29
2019-01-21T09:25:37.927Z,-2.40
2019-01-21T09:26:37.920Z,-2.32
2019-01-21T09:27:37.872Z,-2.30
2019-01-21T09:28:37.850Z,-2.24
2019-01-21T09:29:37.844Z,-2.24
2019-01-21T09:30:37.799Z,-2.34
2019-01-21T09:31:37.772Z,-2.27
2019-01-21T09:32:37.774Z,-2.27
2019-01-21T09:33:37.724Z,-2.18
2019-01-21T09:34:38.074Z,-2.15
2019-01-21T09:35:37.673Z,-2.21
2019-01-21T09:36:37.646Z,-2.15
2019-01-21T09:37:37.620Z,-2.21
2019-01-21T09:38:37.614Z,-2.15
2019-01-21T09:39:37.569Z,-2.15
2019-01-21T09:40:37.593Z,-2.10
2019-01-21T09:41:37.577Z,-2.02
2019-01-21T09:42:37.580Z,-2.03
2019-01-21T09:43:37.561Z,-1.95
2019-01-21T09:44:37.443Z,-2.00
2019-01-21T09:45:37.433Z,-1.91
2019-01-21T09:46:37.471Z,-1.82
2019-01-21T09:47:37.373Z,-1.82
2019-01-21T09:48:37.351Z,-1.77
2019-01-21T09:49:43.566Z,-1.74
2019-01-21T09:50:37.288Z,-1.72
2019-01-21T09:51:37.280Z,-1.74
2019-01-21T09:52:37.240Z,-1.80
2019-01-21T09:53:37.218Z,-1.70
2019-01-21T09:54:37.188Z,-1.64
2019-01-21T09:55:37.180Z,-1.51
2019-01-21T09:56:37.168Z,-1.43
2019-01-21T09:57:37.115Z,-1.37
2019-01-21T09:58:37.087Z,-1.33
2019-01-21T09:59:37.062Z,-1.33
2019-01-21T10:00:37.041Z,-1.33
2019-01-21T10:01:37.011Z,-1.30
2019-01-21T10:02:37.012Z,-1.31
2019-01-21T10:03:36.962Z,-1.33
2019-01-21T10:04:36.944Z,-1.37
2019-01-21T10:05:36.918Z,-1.30
2019-01-21T10:06:36.891Z,-1.38
2019-01-21T10:07:36.868Z,-1.23
2019-01-21T10:08:36.872Z,-1.12
2019-01-21T10:09:36.811Z,-1.12
2019-01-21T10:10:36.795Z,-1.20
2019-01-21T10:11:36.781Z,-1.10
2019-01-21T10:12:36.738Z,-1.12
2019-01-21T10:13:36.709Z,-1.20
2019-01-21T10:14:36.704Z,-0.95
2019-01-21T10:15:36.665Z,-0.95
2019-01-21T10:16:36.637Z,-0.83
2019-01-21T10:17:36.614Z,-0.78
2019-01-21T10:18:36.584Z,-0.73
2019-01-21T10:19:36.569Z,-0.75
2019-01-21T10:20:36.554Z,-0.75
2019-01-21T10:21:36.523Z,-0.69
2019-01-21T10:22:36.487Z,-0.73
2019-01-21T10:23:36.463Z,-0.72
2019-01-21T10:24:36.430Z,-0.78
2019-01-21T10:25:36.428Z,-0.65
2019-01-21T10:26:36.401Z,-0.67
2019-01-21T10:27:36.367Z,-0.46
2019-01-21T10:28:36.357Z,-0.34
2019-01-21T10:29:36.309Z,-0.37
2019-01-21T10:30:36.291Z,-0.39
2019-01-21T10:31:36.285Z,-0.36
2019-01-21T10:32:36.235Z,-0.51
2019-01-21T10:33:36.207Z,-0.42
2019-01-21T10:34:36.186Z,-0.49
2019-01-21T10:35:36.158Z,-0.40
2019-01-21T10:36:36.150Z,-0.28
2019-01-21T10:37:36.136Z,-0.16
2019-01-21T10:38:36.121Z,-0.10
2019-01-21T10:39:36.065Z,-0.18
2019-01-21T10:40:36.039Z,-0.36
2019-01-21T10:41:36.030Z,-0.37
2019-01-21T10:42:35.985Z,-0.18
2019-01-21T10:43:35.971Z,-0.43
2019-01-21T10:44:35.962Z,-0.34
2019-01-21T10:45:35.914Z,-0.34
2019-01-21T10:46:35.889Z,-0.31
2019-01-21T10:47:35.878Z,-0.23
2019-01-21T10:48:35.852Z,-0.28
2019-01-21T10:49:35.850Z,-0.22
2019-01-21T10:50:36.125Z,-0.28
2019-01-21T10:51:35.774Z,-0.18
2019-01-21T10:52:35.756Z,-0.08
2019-01-21T10:53:35.731Z,-0.07
2019-01-21T10:54:35.694Z,0.04
2019-01-21T10:55:35.713Z,0.02
2019-01-21T10:56:35.644Z,0.14
2019-01-21T10:57:35.622Z,0.07
2019-01-21T10:58:35.595Z,-0.03
2019-01-21T10:59:35.569Z,0.04
2019-01-21T11:00:35.545Z,0.17
2019-01-21T11:01:35.535Z,0.35
2019-01-21T11:02:35.500Z,0.18
2019-01-21T11:03:35.472Z,0.18
2019-01-21T11:04:35.448Z,0.21
2019-01-21T11:05:35.421Z,0.26
2019-01-21T11:06:35.413Z,0.26
2019-01-21T11:07:35.378Z,0.39
2019-01-21T11:08:35.364Z,0.38
2019-01-21T11:09:35.323Z,0.51
2019-01-21T11:10:35.300Z,0.57
2019-01-21T11:11:35.302Z,0.60
2019-01-21T11:12:35.254Z,0.60
2019-01-21T11:13:35.225Z,0.62
2019-01-21T11:14:35.195Z,0.79
2019-01-21T11:15:35.178Z,0.91
2019-01-21T11:16:35.152Z,0.97
2019-01-21T11:17:35.143Z,0.94
2019-01-21T11:18:35.099Z,0.96
2019-01-21T11:19:35.110Z,1.15
2019-01-21T11:20:35.055Z,1.32
2019-01-21T11:21:35.030Z,1.36
2019-01-21T11:22:35.003Z,1.47
2019-01-21T11:23:35.003Z,1.42
2019-01-21T11:24:34.970Z,1.54
2019-01-21T11:25:34.932Z,1.68
2019-01-21T11:26:34.913Z,1.76
2019-01-21T11:27:34.888Z,1.63
2019-01-21T11:28:34.875Z,1.60
2019-01-21T11:29:34.860Z,1.76
2019-01-21T11:30:34.836Z,1.58
2019-01-21T11:31:34.795Z,1.54
2019-01-21T11:32:34.774Z,1.55
2019-01-21T11:33:34.756Z,1.58
2019-01-21T11:34:34.741Z,1.37
2019-01-21T11:35:34.717Z,1.32
2019-01-21T11:36:34.696Z,0.93
2019-01-21T11:37:34.654Z,0.94
2019-01-21T11:38:34.636Z,1.02
2019-01-21T11:39:34.621Z,1.09
2019-01-21T11:40:34.603Z,1.15
2019-01-21T11:41:35.180Z,1.20
2019-01-21T11:42:34.563Z,1.29
2019-01-21T11:43:34.520Z,1.29
2019-01-21T11:44:34.504Z,1.29
2019-01-21T11:45:34.486Z,1.36
2019-01-21T11:46:34.464Z,1.30
2019-01-21T11:47:34.445Z,1.33
2019-01-21T11:48:34.409Z,1.36
2019-01-21T11:49:34.399Z,1.47
2019-01-21T11:50:34.359Z,1.36
2019-01-21T11:51:34.340Z,1.51
2019-01-21T11:52:34.334Z,1.54
2019-01-21T11:53:34.290Z,1.60
2019-01-21T11:54:34.267Z,1.69
2019-01-21T11:55:34.240Z,1.73
2019-01-21T11:56:34.224Z,1.66
2019-01-21T11:57:34.199Z,1.68
2019-01-21T11:58:34.197Z,1.58
2019-01-21T11:59:34.155Z,1.68
2019-01-21T12:00:34.138Z,1.87
2019-01-21T12:01:34.113Z,1.73
2019-01-21T12:02:34.088Z,2.02
2019-01-21T12:03:34.083Z,2.09
2019-01-21T12:04:34.070Z,2.17
2019-01-21T12:05:34.023Z,2.02
2019-01-21T12:06:33.998Z,2.24
2019-01-21T12:07:33.973Z,2.35
2019-01-21T12:08:33.955Z,2.34
2019-01-21T12:09:33.931Z,2.45
2019-01-21T12:10:33.929Z,2.48
2019-01-21T12:11:33.889Z,2.45
2019-01-21T12:12:33.867Z,2.46
2019-01-21T12:13:33.845Z,2.46
2019-01-21T12:14:33.826Z,2.48
2019-01-21T12:15:33.797Z,2.59
2019-01-21T12:16:33.817Z,2.53
2019-01-21T12:17:33.750Z,2.49
2019-01-21T12:18:33.735Z,2.48
2019-01-21T12:19:33.713Z,2.41
2019-01-21T12:20:33.691Z,2.46
2019-01-21T12:21:33.700Z,2.54
2019-01-21T12:22:33.642Z,2.66
2019-01-21T12:23:33.629Z,2.69
2019-01-21T12:24:33.604Z,2.64
2019-01-21T12:25:33.581Z,2.63
2019-01-21T12:26:33.560Z,2.66
2019-01-21T12:27:33.565Z,2.79
2019-01-21T12:28:33.525Z,2.99
2019-01-21T12:29:33.499Z,3.02
2019-01-21T12:30:33.477Z,2.69
2019-01-21T12:31:33.459Z,2.97
2019-01-21T12:32:33.435Z,3.10
2019-01-21T12:33:33.431Z,3.11
2019-01-21T12:34:33.390Z,3.10
2019-01-21T12:35:33.379Z,3.21
2019-01-21T12:36:33.349Z,3.11
2019-01-21T12:37:33.329Z,3.24
2019-01-21T12:38:33.315Z,3.32
2019-01-21T12:39:33.303Z,3.45
2019-01-21T12:40:33.263Z,3.28
2019-01-21T12:41:33.247Z,3.47
2019-01-21T12:42:33.227Z,3.54
2019-01-21T12:43:33.238Z,3.68
2019-01-21T12:44:33.186Z,3.88
2019-01-21T12:45:33.163Z,3.72
2019-01-21T12:46:33.144Z,3.72
2019-01-21T12:47:33.156Z,3.80
2019-01-21T12:48:33.102Z,3.96
2019-01-21T12:49:33.086Z,4.05
2019-01-21T12:50:33.062Z,3.93
2019-01-21T12:51:33.046Z,4.06
2019-01-21T12:52:33.026Z,3.94
2019-01-21T12:53:33.019Z,3.91
2019-01-21T12:54:32.985Z,3.76
2019-01-21T12:55:32.968Z,3.54
2019-01-21T12:56:32.944Z,3.23